Time;durP1;ratioP1;P1;durP2;ratioP2;P2;SDS_P1;SDS_P2;PMS_P1;PMS_P2;Temp;Humidity;BMP_temperature;BMP_pressure;BME280_temperature;BME280_humidity;BME280_pressure;Samples;Min_cycle;Max_cycle;Signal;HPM_P1;HPM_P2
2023/10/18 00:02:48;;;;;;;21.55;10.52;;;;;;;6.79;100.00;100983.91;5047091;28;20032;-78
2023/10/18 00:05:15;;;;;;;17.83;10.15;;;;;;;6.76;100.00;100986.81;5031400;28;20048;-79
2023/10/18 00:07:43;;;;;;;19.52;10.25;;;;;;;6.79;100.00;100986.63;5048717;28;20025;-78
2023/10/18 00:10:09;;;;;;;20.90;10.90;;;;;;;6.73;100.00;100984.25;5047467;28;20041;-79
2023/10/18 00:12:34;;;;;;;18.95;10.10;;;;;;;6.78;100.00;100982.13;5024612;28;20041;-79
2023/10/18 00:15:01;;;;;;;18.23;10.88;;;;;;;6.77;100.00;100979.50;5047533;28;20036;-79
2023/10/18 00:17:26;;;;;;;18.08;10.05;;;;;;;6.79;100.00;100978.44;5043625;28;20502;-79
2023/10/18 00:19:52;;;;;;;18.65;10.07;;;;;;;6.77;100.00;100977.69;5048719;28;20048;-79
2023/10/18 00:22:18;;;;;;;16.27;10.50;;;;;;;6.68;100.00;100983.66;5049715;28;20029;-79
2023/10/18 00:24:43;;;;;;;20.42;11.02;;;;;;;6.73;100.00;100981.53;5043784;28;20488;-78
2023/10/18 00:27:10;;;;;;;15.25;10.57;;;;;;;6.70;100.00;100973.56;5042908;28;20061;-79
2023/10/18 00:29:36;;;;;;;17.08;10.27;;;;;;;6.68;100.00;100977.38;5025583;28;20029;-79
2023/10/18 00:32:03;;;;;;;19.50;10.50;;;;;;;6.63;100.00;100962.19;5032463;28;20398;-79
2023/10/18 00:34:29;;;;;;;18.00;10.50;;;;;;;6.68;100.00;100969.19;5049216;28;20071;-79
2023/10/18 00:36:55;;;;;;;23.65;11.13;;;;;;;6.59;100.00;100963.34;5049737;28;20391;-78
2023/10/18 00:39:27;;;;;;;16.20;10.20;;;;;;;6.61;100.00;100975.00;5029188;28;20556;-79
2023/10/18 00:41:54;;;;;;;24.00;11.43;;;;;;;6.63;100.00;100966.75;5046230;28;20028;-79
2023/10/18 00:44:21;;;;;;;16.27;9.98;;;;;;;6.67;100.00;100978.31;5031331;28;20029;-79
2023/10/18 00:46:52;;;;;;;22.42;10.63;;;;;;;6.58;100.00;100966.16;5038297;28;20025;-78
2023/10/18 00:49:20;;;;;;;19.60;10.40;;;;;;;6.62;100.00;100973.16;5046953;28;20029;-79
2023/10/18 00:51:47;;;;;;;21.60;11.15;;;;;;;6.59;100.00;100970.63;5028314;28;20562;-79
2023/10/18 00:54:14;;;;;;;21.77;10.40;;;;;;;6.57;100.00;100961.69;5036143;28;20567;-79
2023/10/18 00:56:43;;;;;;;23.55;11.13;;;;;;;6.52;100.00;100961.94;5032478;28;20025;-78
2023/10/18 00:59:21;;;;;;;18.92;10.60;;;;;;;6.51;100.00;100959.31;5039933;28;20052;-78
2023/10/18 01:01:56;;;;;;;17.95;10.45;;;;;;;6.51;100.00;100953.88;5052709;28;20037;-78
2023/10/18 01:04:24;;;;;;;16.67;10.55;;;;;;;6.52;100.00;100955.66;5049845;28;20485;-78
2023/10/18 01:06:50;;;;;;;18.27;11.45;;;;;;;6.47;100.00;100946.91;5048020;28;20064;-78
2023/10/18 01:09:17;;;;;;;21.45;10.77;;;;;;;6.49;100.00;100945.81;5053270;28;20083;-79
2023/10/18 01:11:46;;;;;;;19.40;10.93;;;;;;;6.52;100.00;100942.06;5044040;28;20048;-78
2023/10/18 01:14:18;;;;;;;18.98;11.48;;;;;;;6.57;100.00;100950.81;5048258;28;20091;-78
2023/10/18 01:16:44;;;;;;;20.47;11.03;;;;;;;6.57;100.00;100948.09;5047282;28;20055;-78
2023/10/18 01:19:14;;;;;;;21.95;11.48;;;;;;;6.58;100.00;100950.72;5034420;28;20032;-79
2023/10/18 01:21:45;;;;;;;18.95;10.35;;;;;;;6.51;100.00;100938.47;5050495;28;20060;-80
2023/10/18 01:24:14;;;;;;;16.90;10.30;;;;;;;6.47;100.00;100936.88;5052436;28;20032;-79
2023/10/18 01:26:40;;;;;;;21.67;10.95;;;;;;;6.41;100.00;100926.38;5047666;28;20044;-79
2023/10/18 01:29:08;;;;;;;23.90;10.95;;;;;;;6.49;100.00;100934.06;5047635;28;20028;-78
2023/10/18 01:31:33;;;;;;;22.10;10.70;;;;;;;6.43;100.00;100924.47;5050021;28;20037;-78
2023/10/18 01:33:59;;;;;;;20.92;10.43;;;;;;;6.44;100.00;100923.47;5049586;28;20751;-78
2023/10/18 01:36:31;;;;;;;20.83;10.40;;;;;;;6.37;100.00;100911.22;5046519;28;20443;-78
2023/10/18 01:38:57;;;;;;;18.05;10.80;;;;;;;6.36;100.00;100904.91;5051426;28;20028;-79
2023/10/18 01:41:29;;;;;;;18.85;10.43;;;;;;;6.40;100.00;100898.31;5049539;28;20036;-79
2023/10/18 01:44:06;;;;;;;15.82;10.30;;;;;;;6.40;100.00;100902.88;5050429;28;20470;-78
2023/10/18 01:46:36;;;;;;;17.10;10.30;;;;;;;6.35;100.00;100895.00;5052622;28;20025;-78
2023/10/18 01:49:04;;;;;;;20.70;11.20;;;;;;;6.38;100.00;100897.53;5047160;28;20049;-78
2023/10/18 01:51:30;;;;;;;20.27;10.70;;;;;;;6.33;100.00;100888.78;5048778;28;20049;-78
2023/10/18 01:53:55;;;;;;;22.92;10.95;;;;;;;6.28;100.00;100887.28;5017547;28;20036;-78
2023/10/18 01:56:21;;;;;;;19.98;11.13;;;;;;;6.29;100.00;100878.19;5030764;28;20035;-79
2023/10/18 01:58:49;;;;;;;19.40;11.27;;;;;;;6.36;100.00;100888.59;5027341;28;20049;-78
2023/10/18 02:01:16;;;;;;;21.20;10.88;;;;;;;6.29;100.00;100878.19;5042524;28;20041;-79
2023/10/18 02:03:46;;;;;;;22.75;10.90;;;;;;;6.35;100.00;100870.53;5046727;28;20041;-79
2023/10/18 02:06:14;;;;;;;16.83;10.73;;;;;;;6.30;100.00;100878.09;5033422;28;20029;-78
2023/10/18 02:08:40;;;;;;;19.10;10.85;;;;;;;6.27;100.00;100878.28;5049479;28;20082;-78
2023/10/18 02:11:07;;;;;;;21.95;10.48;;;;;;;6.37;100.00;100865.00;5048074;28;20029;-78
2023/10/18 02:13:33;;;;;;;21.10;9.60;;;;;;;6.36;100.00;100863.22;5044582;28;20037;-78
2023/10/18 02:15:58;;;;;;;19.80;9.70;;;;;;;6.29;100.00;100857.28;5043237;28;20041;-78
2023/10/18 02:18:26;;;;;;;18.63;9.55;;;;;;;6.31;100.00;100855.34;5050682;28;20033;-79
2023/10/18 02:20:52;;;;;;;20.75;10.07;;;;;;;6.33;100.00;100850.72;5045260;28;20128;-78
2023/10/18 02:23:18;;;;;;;19.83;10.77;;;;;;;6.19;100.00;100850.69;5050613;28;20116;-78
2023/10/18 02:25:45;;;;;;;18.92;10.20;;;;;;;6.21;100.00;100852.31;5046910;28;20036;-79
2023/10/18 02:28:33;;;;;;;20.15;10.02;;;;;;;6.22;100.00;100853.22;5047248;28;20470;-78
2023/10/18 02:33:44;;;;;;;20.35;10.20;;;;;;;6.23;100.00;100844.97;5046370;28;20403;-79
2023/10/18 02:38:55;;;;;;;21.55;10.10;;;;;;;6.21;100.00;100846.88;5043286;28;20445;-78
2023/10/18 02:41:21;;;;;;;18.08;10.48;;;;;;;6.18;100.00;100847.09;5043819;28;20025;-78
2023/10/18 02:43:50;;;;;;;22.50;10.60;;;;;;;6.15;100.00;100835.50;5011940;28;20029;-78
2023/10/18 02:46:16;;;;;;;22.60;11.02;;;;;;;6.04;100.00;100828.03;5050231;28;20029;-78
2023/10/18 02:48:47;;;;;;;21.80;11.20;;;;;;;6.05;100.00;100829.75;5045264;28;20112;-79
2023/10/18 02:51:12;;;;;;;20.38;10.48;;;;;;;6.05;100.00;100827.94;5048070;28;20109;-79
2023/10/18 02:53:41;;;;;;;20.38;10.82;;;;;;;6.10;100.00;100834.91;5047185;28;20609;-79
2023/10/18 02:56:17;;;;;;;17.45;10.32;;;;;;;6.01;100.00;100834.50;5032452;28;20119;-78
2023/10/18 02:58:43;;;;;;;16.20;10.27;;;;;;;6.00;100.00;100812.84;5047078;28;20056;-79
2023/10/18 03:01:09;;;;;;;25.13;11.13;;;;;;;6.08;100.00;100816.00;5048857;28;20498;-78
2023/10/18 03:03:35;;;;;;;23.60;10.90;;;;;;;6.11;100.00;100813.09;5048325;28;20049;-78
2023/10/18 03:06:06;;;;;;;21.75;10.55;;;;;;;6.09;100.00;100808.72;5030936;28;20110;-78
2023/10/18 03:08:32;;;;;;;18.35;10.82;;;;;;;6.15;100.00;100811.03;5033507;28;20025;-79
2023/10/18 03:11:00;;;;;;;23.67;10.93;;;;;;;6.05;100.00;100789.88;5055167;28;20710;-78
2023/10/18 03:13:27;;;;;;;24.58;10.32;;;;;;;6.09;100.00;100795.13;5048807;28;20025;-78
2023/10/18 03:16:15;;;;;;;29.85;11.23;;;;;;;6.09;100.00;100782.41;5033118;28;20032;-79
2023/10/18 03:18:43;;;;;;;20.38;9.93;;;;;;;6.11;100.00;100799.50;5045413;28;20029;-79
2023/10/18 03:21:20;;;;;;;19.75;9.23;;;;;;;6.08;100.00;100791.53;5049198;28;20029;-78
2023/10/18 03:23:50;;;;;;;20.75;10.35;;;;;;;6.06;100.00;100788.91;5031900;28;20549;-78
2023/10/18 03:26:21;;;;;;;23.30;10.45;;;;;;;6.03;100.00;100782.78;5050856;28;20029;-79
2023/10/18 03:28:47;;;;;;;17.25;9.57;;;;;;;6.06;100.00;100788.91;5048146;28;20029;-79
2023/10/18 03:31:21;;;;;;;20.58;10.13;;;;;;;6.11;100.00;100785.91;5045834;28;20043;-79
2023/10/18 03:34:02;;;;;;;14.90;9.32;;;;;;;5.97;100.00;100773.19;5045609;28;20083;-78
2023/10/18 03:36:31;;;;;;;18.00;9.77;;;;;;;6.02;100.00;100772.91;5048987;28;20029;-78
2023/10/18 03:39:00;;;;;;;16.77;9.23;;;;;;;6.01;100.00;100774.72;5048057;28;20037;-78
2023/10/18 03:41:40;;;;;;;20.67;9.85;;;;;;;6.10;100.00;100781.47;5048531;28;20024;-79
2023/10/18 03:44:13;;;;;;;19.33;10.40;;;;;;;6.11;100.00;100761.44;5048439;28;20441;-78
2023/10/18 03:46:47;;;;;;;19.45;9.35;;;;;;;6.08;100.00;100761.63;5049220;28;20025;-78
2023/10/18 03:49:18;;;;;;;19.42;9.63;;;;;;;6.07;100.00;100752.59;5048584;28;20021;-78
2023/10/18 03:51:47;;;;;;;16.75;10.05;;;;;;;6.11;100.00;100757.84;5048459;28;20044;-78
2023/10/18 03:54:15;;;;;;;21.70;10.23;;;;;;;6.09;100.00;100757.09;5044605;28;20032;-79
2023/10/18 03:56:43;;;;;;;22.88;10.10;;;;;;;6.10;100.00;100757.00;5047130;28;20144;-79
2023/10/18 03:59:21;;;;;;;13.88;9.38;;;;;;;6.04;100.00;100755.50;5047036;28;20057;-79
2023/10/18 04:04:35;;;;;;;22.37;9.33;;;;;;;5.96;100.00;100748.78;5047272;28;20032;-79
2023/10/18 04:07:12;;;;;;;22.77;9.70;;;;;;;5.95;100.00;100742.47;5042374;28;20313;-78
2023/10/18 04:09:46;;;;;;;17.23;9.85;;;;;;;6.09;100.00;100740.78;5040024;28;20029;-89
2023/10/18 04:12:19;;;;;;;15.27;8.65;;;;;;;5.93;100.00;100733.53;5019692;28;20040;-89
2023/10/18 04:15:00;;;;;;;29.75;10.48;;;;;;;5.96;100.00;100727.94;5021143;28;20036;-89
2023/10/18 04:17:36;;;;;;;16.08;9.68;;;;;;;5.97;100.00;100718.81;5035759;28;20021;-88
2023/10/18 04:20:08;;;;;;;20.45;10.60;;;;;;;5.94;100.00;100718.97;5036160;28;20045;-87
2023/10/18 04:22:36;;;;;;;24.75;10.25;;;;;;;6.02;100.00;100713.97;5051920;28;20036;-90
2023/10/18 04:25:09;;;;;;;21.33;10.52;;;;;;;5.98;100.00;100716.97;5051871;28;20048;-88
2023/10/18 04:27:37;;;;;;;20.45;11.18;;;;;;;5.98;100.00;100712.41;5047106;28;20017;-87
2023/10/18 04:30:06;;;;;;;21.05;10.52;;;;;;;5.96;100.00;100703.47;5014860;28;20044;-87
2023/10/18 04:32:31;;;;;;;21.88;10.32;;;;;;;5.99;100.00;100702.44;5050298;28;20047;-87
2023/10/18 04:34:57;;;;;;;17.40;9.63;;;;;;;5.98;100.00;100698.81;5038222;28;20128;-87
2023/10/18 04:37:23;;;;;;;21.92;10.77;;;;;;;6.03;100.00;100704.88;5020788;28;20021;-89
2023/10/18 04:39:48;;;;;;;17.33;9.80;;;;;;;6.03;100.00;100695.81;5038759;28;20403;-87
2023/10/18 04:42:17;;;;;;;24.45;11.18;;;;;;;5.95;100.00;100690.84;5030390;28;20024;-86
2023/10/18 04:44:48;;;;;;;27.73;10.35;;;;;;;5.94;100.00;100683.66;5045448;28;20040;-87
2023/10/18 04:47:14;;;;;;;19.70;11.65;;;;;;;5.98;100.00;100682.50;5048847;28;20033;-86
2023/10/18 04:49:40;;;;;;;22.00;10.32;;;;;;;5.97;100.00;100677.16;5044504;28;20025;-86
2023/10/18 04:52:09;;;;;;;22.30;9.90;;;;;;;6.01;100.00;100671.44;5052824;28;20378;-84
2023/10/18 04:54:41;;;;;;;18.90;10.65;;;;;;;5.98;100.00;100678.94;5034689;28;20017;-84
2023/10/18 04:57:13;;;;;;;20.92;9.80;;;;;;;6.02;100.00;100665.06;5048808;28;20067;-84
2023/10/18 04:59:52;;;;;;;22.00;10.07;;;;;;;5.98;100.00;100666.19;5045482;28;20049;-84
2023/10/18 05:02:18;;;;;;;21.13;10.52;;;;;;;5.98;100.00;100662.63;5017465;28;20116;-84
2023/10/18 05:04:46;;;;;;;19.33;9.20;;;;;;;5.99;100.00;100653.50;5051560;28;20389;-84
2023/10/18 05:12:07;;;;;;;23.10;10.38;;;;;;;5.95;100.00;100665.50;5048496;28;20411;-84
2023/10/18 05:17:22;;;;;;;26.08;10.45;;;;;;;5.95;100.00;100660.97;5046206;28;20100;-85
2023/10/18 05:19:55;;;;;;;21.77;9.27;;;;;;;5.98;100.00;100674.34;5050255;28;20036;-84
2023/10/18 05:22:24;;;;;;;24.25;10.23;;;;;;;5.97;100.00;100660.88;5062757;28;20021;-84
2023/10/18 05:25:12;;;;;;;17.48;9.82;;;;;;;5.96;100.00;100665.44;5051876;28;20093;-85
2023/10/18 05:33:15;;;;;;;17.40;8.75;;;;;;;5.93;100.00;100651.13;5052263;28;20067;-84
2023/10/18 05:35:43;;;;;;;20.70;10.00;;;;;;;5.89;100.00;100647.75;5045125;28;20021;-85
2023/10/18 05:43:51;;;;;;;17.85;9.45;;;;;;;5.83;100.00;100631.81;5053013;28;20045;-85
2023/10/18 05:46:00;;;;;;;16.13;8.10;;;;;;;5.76;100.00;100625.03;5042210;28;20041;-85
2023/10/18 05:48:25;;;;;;;31.63;10.40;;;;;;;5.81;100.00;100629.22;5049674;28;20021;-85
2023/10/18 05:51:25;;;;;;;18.10;9.07;;;;;;;5.86;100.00;100635.22;5048761;28;20128;-84
2023/10/18 05:53:59;;;;;;;17.48;8.43;;;;;;;5.88;100.00;100627.84;5044715;28;20407;-84
2023/10/18 05:56:34;;;;;;;18.15;9.60;;;;;;;5.84;100.00;100628.16;5049752;28;20033;-85
2023/10/18 06:01:51;;;;;;;21.95;9.63;;;;;;;5.87;100.00;100634.25;5045301;28;20025;-85
2023/10/18 06:04:26;;;;;;;24.92;9.45;;;;;;;5.96;100.00;100623.78;5045356;28;20094;-85
2023/10/18 06:06:58;;;;;;;19.63;10.02;;;;;;;5.97;100.00;100625.53;5052798;28;20585;-85
2023/10/18 06:09:27;;;;;;;19.52;9.23;;;;;;;5.96;100.00;100624.69;5044365;28;20032;-86
2023/10/18 06:11:55;;;;;;;17.40;8.88;;;;;;;5.93;100.00;100607.66;5045512;28;20029;-86
2023/10/18 06:14:21;;;;;;;19.92;9.15;;;;;;;5.92;100.00;100601.38;5051600;28;20013;-88
2023/10/18 06:16:51;;;;;;;17.48;9.35;;;;;;;5.98;100.00;100616.44;5030958;28;20040;-91
2023/10/18 06:19:25;;;;;;;15.98;9.05;;;;;;;5.95;100.00;100614.75;5032162;28;20033;-86
2023/10/18 06:21:57;;;;;;;15.38;8.55;;;;;;;5.95;100.00;100612.03;5047987;28;20040;-87
2023/10/18 06:24:25;;;;;;;15.07;8.38;;;;;;;6.04;100.00;100608.75;5043903;28;20025;-86
2023/10/18 06:26:53;;;;;;;22.23;9.23;;;;;;;6.04;100.00;100616.91;5043062;28;20029;-85
2023/10/18 06:29:24;;;;;;;15.80;8.30;;;;;;;6.06;100.00;100609.50;5032467;28;20449;-79
2023/10/18 06:31:50;;;;;;;15.32;8.60;;;;;;;6.10;100.00;100603.88;5047019;28;20029;-79
2023/10/18 06:34:22;;;;;;;19.15;9.00;;;;;;;6.09;100.00;100600.31;5050612;28;20032;-80
2023/10/18 06:36:48;;;;;;;23.63;8.95;;;;;;;6.13;100.00;100601.84;5042289;28;20025;-78
2023/10/18 06:39:37;;;;;;;19.65;8.63;;;;;;;6.17;100.00;100597.09;5047464;28;20017;-78
2023/10/18 06:42:07;;;;;;;17.05;7.60;;;;;;;6.19;100.00;100592.44;5047549;28;20032;-77
2023/10/18 06:44:33;;;;;;;15.73;7.95;;;;;;;6.31;100.00;100588.88;5049411;28;20053;-78
2023/10/18 06:47:01;;;;;;;19.15;8.25;;;;;;;6.23;100.00;100581.25;5030661;28;20071;-78
2023/10/18 06:49:27;;;;;;;17.10;8.80;;;;;;;6.29;100.00;100584.53;5049343;28;20034;-78
2023/10/18 06:51:52;;;;;;;16.30;8.32;;;;;;;6.32;100.00;100574.34;5045441;28;20031;-77
2023/10/18 06:54:54;;;;;;;18.55;8.10;;;;;;;6.29;100.00;100574.53;5047238;28;20027;-78
2023/10/18 06:57:18;;;;;;;13.85;7.95;;;;;;;6.44;100.00;100570.81;5044728;28;20041;-77
2023/10/18 06:59:48;;;;;;;13.32;7.53;;;;;;;6.36;100.00;100565.00;5047062;28;20061;-78
2023/10/18 07:02:14;;;;;;;14.73;8.25;;;;;;;6.42;100.00;100566.44;5042537;28;20052;-76
2023/10/18 07:04:51;;;;;;;15.80;7.70;;;;;;;6.41;100.00;100568.28;5031420;28;20060;-78
2023/10/18 07:07:20;;;;;;;13.88;7.82;;;;;;;6.41;100.00;100565.59;5049569;28;20036;-77
2023/10/18 07:09:53;;;;;;;16.42;7.70;;;;;;;6.48;100.00;100555.16;5047491;28;20048;-77
2023/10/18 07:12:26;;;;;;;15.70;7.95;;;;;;;6.49;100.00;100542.44;5045150;28;20100;-77
2023/10/18 07:14:53;;;;;;;18.48;8.13;;;;;;;6.52;100.00;100553.97;5045595;28;20032;-77
2023/10/18 07:17:21;;;;;;;15.88;7.53;;;;;;;6.59;100.00;100544.44;5046965;28;20067;-77
2023/10/18 07:19:55;;;;;;;14.93;7.80;;;;;;;6.65;100.00;100542.28;5031843;28;20037;-77
2023/10/18 07:22:39;;;;;;;16.98;7.50;;;;;;;6.59;100.00;100539.00;5042501;28;20037;-77
2023/10/18 07:25:08;;;;;;;14.68;7.78;;;;;;;6.77;100.00;100528.72;5065638;28;20067;-77
2023/10/18 07:27:36;;;;;;;15.85;7.70;;;;;;;6.84;100.00;100533.69;5026512;28;20091;-77
2023/10/18 07:30:03;;;;;;;18.80;7.95;;;;;;;6.85;100.00;100524.56;5049708;28;20056;-77
2023/10/18 07:32:28;;;;;;;21.95;8.32;;;;;;;7.01;100.00;100527.97;5049550;28;20059;-77
2023/10/18 07:34:57;;;;;;;14.40;8.10;;;;;;;7.05;100.00;100531.34;5050075;28;20056;-78
2023/10/18 07:37:32;;;;;;;18.65;8.32;;;;;;;7.10;100.00;100523.72;5049367;28;20461;-78
2023/10/18 07:39:59;;;;;;;15.77;7.72;;;;;;;7.20;100.00;100533.03;5052027;28;20021;-78
2023/10/18 07:42:34;;;;;;;12.68;7.65;;;;;;;7.27;100.00;100517.13;5047550;28;20040;-78
2023/10/18 07:45:08;;;;;;;15.63;9.05;;;;;;;7.48;100.00;100526.47;5018329;28;20083;-77
2023/10/18 07:47:37;;;;;;;15.50;7.57;;;;;;;7.59;100.00;100524.81;5044158;28;20040;-78
2023/10/18 07:50:25;;;;;;;14.77;7.50;;;;;;;7.70;100.00;100520.34;5049179;28;20039;-77
2023/10/18 07:52:54;;;;;;;14.45;7.45;;;;;;;7.82;100.00;100502.25;5042188;28;20051;-77
2023/10/18 07:55:21;;;;;;;16.67;7.38;;;;;;;7.82;100.00;100502.25;5016255;28;20074;-77
2023/10/18 07:57:47;;;;;;;15.13;6.68;;;;;;;7.73;100.00;100506.50;5049753;28;20049;-78
2023/10/18 08:00:32;;;;;;;16.30;7.07;;;;;;;7.91;100.00;100493.38;5049859;28;20057;-77
2023/10/18 08:02:57;;;;;;;12.73;6.60;;;;;;;8.09;100.00;100491.13;5047108;28;20406;-78
2023/10/18 08:05:30;;;;;;;16.00;7.43;;;;;;;8.23;100.00;100490.09;5037066;28;20033;-78
2023/10/18 08:07:57;;;;;;;12.90;6.75;;;;;;;8.39;100.00;100497.13;5033233;28;20037;-77
2023/10/18 08:10:25;;;;;;;12.85;7.43;;;;;;;8.67;100.00;100487.72;5051794;28;20478;-78
2023/10/18 08:15:37;;;;;;;11.27;6.43;;;;;;;8.77;100.00;100472.38;5053441;28;20036;-78
2023/10/18 08:18:16;;;;;;;11.40;6.88;;;;;;;8.95;100.00;100467.34;5053941;28;20035;-78
2023/10/18 08:26:04;;;;;;;13.43;6.15;;;;;;;9.11;100.00;100474.31;5050414;28;20059;-76
2023/10/18 08:28:40;;;;;;;11.48;6.80;;;;;;;9.10;100.00;100467.09;5052404;28;20514;-77
2023/10/18 08:31:32;;;;;;;8.93;6.57;;;;;;;8.93;100.00;100457.53;5052003;28;20107;-76
2023/10/18 08:34:05;;;;;;;10.63;6.25;;;;;;;9.17;100.00;100460.19;5037879;28;20517;-77
2023/10/18 08:36:31;;;;;;;10.27;6.32;;;;;;;9.33;100.00;100468.88;5051613;28;20021;-77
2023/10/18 08:38:58;;;;;;;11.07;6.18;;;;;;;9.28;100.00;100473.84;5051564;28;20063;-77
2023/10/18 08:41:33;;;;;;;13.43;6.85;;;;;;;9.31;100.00;100465.41;5051968;28;20064;-76
2023/10/18 08:44:15;;;;;;;14.82;6.97;;;;;;;9.27;100.00;100466.63;5051696;28;20036;-78
2023/10/18 08:46:43;;;;;;;15.80;7.38;;;;;;;9.54;100.00;100460.81;5048758;28;20024;-78
2023/10/18 08:49:13;;;;;;;12.80;6.50;;;;;;;9.47;100.00;100461.44;5054469;28;20048;-76
2023/10/18 08:51:44;;;;;;;17.33;6.82;;;;;;;9.67;100.00;100462.53;5051746;28;20098;-77
2023/10/18 08:54:17;;;;;;;16.23;7.15;;;;;;;9.89;100.00;100456.19;5052929;28;20021;-78
2023/10/18 08:56:47;;;;;;;10.50;6.82;;;;;;;9.94;100.00;100468.47;5050553;28;20025;-78
2023/10/18 08:59:19;;;;;;;14.27;7.05;;;;;;;9.95;100.00;100461.13;5052184;28;20049;-78
2023/10/18 09:04:32;;;;;;;11.00;6.40;;;;;;;9.99;100.00;100440.75;5050074;28;20079;-76
2023/10/18 09:07:00;;;;;;;11.77;6.50;;;;;;;9.91;100.00;100440.50;5033973;28;20060;-76
2023/10/18 09:09:35;;;;;;;18.15;6.60;;;;;;;9.85;100.00;100432.81;5051373;28;20028;-76
2023/10/18 09:12:14;;;;;;;13.63;6.38;;;;;;;9.89;100.00;100423.38;5052191;28;20056;-77
2023/10/18 09:14:41;;;;;;;12.25;6.28;;;;;;;9.97;100.00;100430.91;5065302;28;20024;-78
2023/10/18 09:17:10;;;;;;;12.25;6.90;;;;;;;9.89;100.00;100432.44;5051697;28;20083;-76
2023/10/18 09:19:38;;;;;;;19.65;6.47;;;;;;;10.09;100.00;100422.56;5033038;28;20036;-76
2023/10/18 09:22:06;;;;;;;20.30;6.35;;;;;;;10.26;100.00;100412.94;5051063;28;20040;-75
2023/10/18 09:24:31;;;;;;;11.63;6.80;;;;;;;10.61;100.00;100410.94;5051870;28;20733;-78
2023/10/18 09:26:57;;;;;;;12.35;6.40;;;;;;;10.93;100.00;100401.75;5036316;28;20021;-78
2023/10/18 09:29:26;;;;;;;14.07;6.25;;;;;;;10.88;100.00;100390.34;5050907;28;20029;-75
2023/10/18 09:31:54;;;;;;;11.77;6.18;;;;;;;10.92;100.00;100387.22;5053846;28;20041;-78
2023/10/18 09:34:23;;;;;;;9.68;6.03;;;;;;;11.04;100.00;100385.25;5052969;28;20047;-78
2023/10/18 09:36:56;;;;;;;14.30;7.13;;;;;;;11.12;100.00;100390.06;5053886;28;20103;-78
2023/10/18 09:39:24;;;;;;;17.05;6.43;;;;;;;11.40;100.00;100383.81;5053465;28;20493;-78
2023/10/18 09:41:52;;;;;;;10.82;6.15;;;;;;;11.53;100.00;100372.59;5049176;28;20029;-77
2023/10/18 09:44:18;;;;;;;12.80;5.88;;;;;;;11.29;100.00;100364.72;5052392;28;20029;-76
2023/10/18 09:46:48;;;;;;;14.45;6.28;;;;;;;11.53;100.00;100358.03;5044239;28;20021;-77
2023/10/18 09:49:21;;;;;;;10.00;6.32;;;;;;;11.78;100.00;100362.13;5051667;28;20041;-77
2023/10/18 09:51:53;;;;;;;;;;;;;;;11.84;100.00;100357.94;5052194;28;20373;-76
2023/10/18 09:54:21;;;;;;;13.18;5.70;;;;;;;11.98;100.00;100354.81;5048629;28;20386;-77
2023/10/18 09:56:52;;;;;;;13.00;6.43;;;;;;;11.86;100.00;100337.59;5051713;28;20035;-77
2023/10/18 09:59:30;;;;;;;12.80;6.18;;;;;;;12.16;100.00;100346.75;5052919;28;20132;-86
2023/10/18 10:02:00;;;;;;;11.27;6.13;;;;;;;12.21;100.00;100338.09;5051647;28;20131;-86
2023/10/18 10:04:32;;;;;;;9.23;6.15;;;;;;;12.22;100.00;100339.81;5053710;28;20506;-86
2023/10/18 10:10:17;;;;;;;8.85;6.20;;;;;;;12.20;100.00;100329.00;5013142;28;20037;-86
2023/10/18 10:12:57;;;;;;;16.33;6.90;;;;;;;12.16;100.00;100329.41;5052753;28;20037;-86
2023/10/18 10:15:28;;;;;;;12.98;6.65;;;;;;;12.57;100.00;100321.84;5046786;28;20033;-86
2023/10/18 10:18:00;;;;;;;13.98;6.68;;;;;;;12.69;100.00;100312.41;5050101;28;20256;-85
2023/10/18 10:20:32;;;;;;;11.57;6.28;;;;;;;13.01;100.00;100312.03;5050421;28;20021;-86
2023/10/18 10:23:06;;;;;;;11.43;6.47;;;;;;;13.15;100.00;100293.28;5048295;28;20376;-87
2023/10/18 10:25:32;;;;;;;10.95;6.38;;;;;;;13.01;100.00;100300.16;5051092;28;20032;-86
2023/10/18 10:28:13;;;;;;;11.45;6.32;;;;;;;12.89;100.00;100294.00;5045223;28;20039;-86
2023/10/18 10:30:43;;;;;;;11.13;6.55;;;;;;;13.10;100.00;100290.13;5048454;28;20044;-86
2023/10/18 10:33:12;;;;;;;11.95;6.75;;;;;;;12.92;100.00;100274.47;5033294;28;20446;-86
2023/10/18 10:35:44;;;;;;;11.10;6.25;;;;;;;13.13;100.00;100276.09;5050543;28;20110;-85
2023/10/18 10:38:13;;;;;;;15.18;6.63;;;;;;;13.21;100.00;100255.06;5052752;28;20017;-86
2023/10/18 10:40:48;;;;;;;13.27;6.40;;;;;;;13.02;100.00;100261.53;5050108;28;20033;-86
2023/10/18 10:43:14;;;;;;;14.60;6.43;;;;;;;13.13;100.00;100254.97;5029898;28;20037;-86
2023/10/18 10:48:18;;;;;;;11.35;6.40;;;;;;;12.89;100.00;100255.53;5052460;28;20450;-86
2023/10/18 10:50:51;;;;;;;11.55;6.38;;;;;;;12.92;100.00;100233.25;5049282;28;20025;-86
2023/10/18 10:53:30;;;;;;;12.32;7.30;;;;;;;13.14;100.00;100231.97;5048097;28;20454;-86
2023/10/18 10:56:17;;;;;;;15.90;7.22;;;;;;;13.35;100.00;100226.22;5051016;28;20483;-86
2023/10/18 10:58:47;;;;;;;13.02;7.22;;;;;;;13.22;100.00;100220.22;5045382;28;20027;-85
2023/10/18 11:01:15;;;;;;;11.73;6.75;;;;;;;12.96;100.00;100214.56;5039199;28;20045;-86
2023/10/18 11:04:14;;;;;;;12.07;6.30;;;;;;;12.81;100.00;100225.22;5033238;28;20115;-86
2023/10/18 11:06:50;;;;;;;9.95;6.25;;;;;;;13.16;100.00;100212.56;5050067;28;20127;-86
2023/10/18 11:09:15;;;;;;;17.80;6.65;;;;;;;13.03;100.00;100212.94;5052088;28;20025;-77
2023/10/18 11:11:45;;;;;;;10.88;6.13;;;;;;;13.02;100.00;100209.34;5049498;28;20041;-77
2023/10/18 11:14:18;;;;;;;8.55;6.40;;;;;;;13.17;100.00;100206.91;5051135;28;20051;-77
2023/10/18 11:16:46;;;;;;;11.20;5.80;;;;;;;13.21;100.00;100211.06;5051682;28;20048;-77
2023/10/18 11:19:15;;;;;;;16.92;6.47;;;;;;;13.03;100.00;100196.44;5052453;28;20104;-78
2023/10/18 11:21:42;;;;;;;14.02;6.22;;;;;;;13.15;100.00;100188.84;5046672;28;20028;-77
2023/10/18 11:24:11;;;;;;;11.52;5.85;;;;;;;13.18;100.00;100185.78;5047563;28;20025;-77
2023/10/18 11:26:46;;;;;;;13.43;5.75;;;;;;;13.29;100.00;100177.31;5050458;28;20132;-77
2023/10/18 11:29:12;;;;;;;13.95;6.13;;;;;;;13.42;100.00;100160.47;5025461;28;20090;-77
2023/10/18 11:31:38;;;;;;;12.18;5.70;;;;;;;13.23;100.00;100150.44;5049864;28;20017;-77
2023/10/18 11:34:07;;;;;;;12.73;5.53;;;;;;;13.34;100.00;100155.75;5048045;28;20526;-77
2023/10/18 11:36:38;;;;;;;9.27;5.95;;;;;;;13.54;100.00;100152.84;5051019;28;20475;-76
2023/10/18 11:41:42;;;;;;;9.95;6.30;;;;;;;13.75;100.00;100142.34;5049754;28;20052;-76
2023/10/18 11:44:17;;;;;;;9.93;6.35;;;;;;;13.88;100.00;100127.31;5046330;28;20028;-76
2023/10/18 11:46:56;;;;;;;11.45;6.18;;;;;;;13.84;100.00;100123.16;5050004;28;20424;-76
2023/10/18 11:49:22;;;;;;;10.93;5.75;;;;;;;13.60;100.00;100120.06;5047427;28;20049;-76
2023/10/18 11:51:50;;;;;;;37.70;5.93;;;;;;;13.68;100.00;100115.66;5046569;28;20028;-77
2023/10/18 11:54:29;;;;;;;15.52;5.95;;;;;;;13.81;100.00;100095.94;5050863;28;20025;-76
2023/10/18 11:56:56;;;;;;;10.52;5.93;;;;;;;13.97;100.00;100093.34;5050251;28;20036;-76
2023/10/18 11:59:24;;;;;;;13.00;6.05;;;;;;;13.85;100.00;100089.13;5049193;28;20021;-76
2023/10/18 12:01:54;;;;;;;11.00;5.90;;;;;;;14.01;100.00;100083.72;5046001;28;20088;-76
2023/10/18 12:04:27;;;;;;;12.00;6.00;;;;;;;13.93;100.00;100075.41;5045407;28;20029;-76
2023/10/18 12:06:53;;;;;;;15.70;5.57;;;;;;;13.98;100.00;100082.13;5044718;28;20107;-77
2023/10/18 12:11:45;;;;;;;17.13;6.45;;;;;;;14.31;100.00;100067.69;5049284;28;20040;-76
2023/10/18 12:14:12;;;;;;;16.13;7.72;;;;;;;14.26;100.00;100059.91;5050557;28;20029;-77
2023/10/18 12:16:41;;;;;;;15.02;7.53;;;;;;;14.24;100.00;100053.72;5031268;28;20187;-76
2023/10/18 12:19:10;;;;;;;14.20;7.25;;;;;;;14.11;100.00;100053.31;5046781;28;20051;-76